Kimolos, Greece
Current Conditions -  °F | °C
As of 11:50 AM on Thursday 23 Oct 2014 (Local Time) from LGSO Reporting Station
Broken Clouds Broken Clouds  
Wind Chill: 72°   Ceiling: 8000
Heat Index: 72°   Visibility: 6mi
Dew Point: 64°   Wind: 20mph
Humidity: 78%   Direction: 170°S
Pressure: 29.62"   Gusts: NA
Location:  36.79°N, 24.57°E
Report Text: LGSO 230850Z 17017KT 9999 SCT018 BKN080 22/18 Q1003
Loading
Personal Weather Stations






























Interactive Weather Map
Tropical Storm Tracking
New forecast layout! Learn more

10-Day Weather Forecast

Advertisements
Track Severe Weather on mobile